createdAt,value
2017-08-10T00:00:06.123Z,17.40
2017-08-10T00:02:07.549Z,17.36
2017-08-10T00:04:08.976Z,17.36
2017-08-10T00:06:10.992Z,17.30
2017-08-10T00:08:13.102Z,17.41
2017-08-10T00:10:14.770Z,17.43
2017-08-10T00:12:16.358Z,17.35
2017-08-10T00:14:17.794Z,17.43
2017-08-10T00:16:19.220Z,17.40
2017-08-10T00:18:20.651Z,17.43
2017-08-10T00:20:22.068Z,17.38
2017-08-10T00:22:23.499Z,17.48
2017-08-10T00:25:06.055Z,17.51
2017-08-10T00:27:07.482Z,17.44
2017-08-10T00:29:08.902Z,17.55
2017-08-10T00:31:11.443Z,17.51
2017-08-10T00:33:12.828Z,17.53
2017-08-10T00:35:14.547Z,17.54
2017-08-10T00:37:56.981Z,17.54
2017-08-10T00:39:58.393Z,17.51
2017-08-10T00:41:59.825Z,17.59
2017-08-10T00:44:01.948Z,17.55
2017-08-10T00:46:04.120Z,17.59
2017-08-10T00:48:05.524Z,17.47
2017-08-10T00:50:06.960Z,17.48
2017-08-10T00:52:48.357Z,17.47
2017-08-10T00:54:49.785Z,17.41
2017-08-10T00:56:51.234Z,17.44
2017-08-10T00:58:52.662Z,17.40
2017-08-10T01:00:54.085Z,17.41
2017-08-10T01:03:36.966Z,17.59
2017-08-10T01:05:38.386Z,17.53
2017-08-10T01:07:41.088Z,17.47
2017-08-10T01:09:42.533Z,17.38
2017-08-10T01:11:44.104Z,17.41
2017-08-10T01:13:45.549Z,17.40
2017-08-10T01:15:47.050Z,17.43
2017-08-10T01:18:29.653Z,17.53
2017-08-10T01:20:31.224Z,17.43
2017-08-10T01:22:32.744Z,17.44
2017-08-10T01:24:34.169Z,17.41
2017-08-10T01:26:35.596Z,17.36
2017-08-10T01:28:37.049Z,17.47
2017-08-10T01:30:38.522Z,17.33
2017-08-10T01:33:21.958Z,17.35
2017-08-10T01:35:23.385Z,17.41
2017-08-10T01:37:25.412Z,17.35
2017-08-10T01:39:26.828Z,17.30
2017-08-10T01:41:28.521Z,17.40
2017-08-10T01:43:29.960Z,17.36
2017-08-10T01:45:31.447Z,17.41
2017-08-10T01:47:32.958Z,17.41
2017-08-10T01:49:34.495Z,17.40
2017-08-10T01:51:36.365Z,17.35
2017-08-10T01:53:37.863Z,17.35
2017-08-10T01:55:39.439Z,17.23
2017-08-10T01:57:40.973Z,17.22
2017-08-10T01:59:42.940Z,17.23
2017-08-10T02:01:44.834Z,17.26
2017-08-10T02:03:46.411Z,17.26
2017-08-10T02:06:29.072Z,17.25
2017-08-10T02:08:30.509Z,17.30
2017-08-10T02:10:32.967Z,17.30
2017-08-10T02:12:34.420Z,17.26
2017-08-10T02:14:36.079Z,17.26
2017-08-10T02:16:37.585Z,17.29
2017-08-10T02:19:20.013Z,17.22
2017-08-10T02:21:21.441Z,17.23
2017-08-10T02:23:22.864Z,17.18
2017-08-10T02:25:24.300Z,17.17
2017-08-10T02:27:25.718Z,17.10
2017-08-10T02:29:28.298Z,17.14
2017-08-10T02:31:29.896Z,17.11
2017-08-10T02:33:31.618Z,17.17
2017-08-10T02:35:33.057Z,17.14
2017-08-10T02:38:16.575Z,17.29
2017-08-10T02:40:18.000Z,17.20
2017-08-10T02:42:20.002Z,17.13
2017-08-10T02:44:21.482Z,17.15
2017-08-10T02:46:23.012Z,17.13
2017-08-10T02:48:25.073Z,17.20
2017-08-10T02:50:26.466Z,17.11
2017-08-10T02:52:28.075Z,17.17
2017-08-10T02:54:29.538Z,17.18
2017-08-10T02:56:31.230Z,17.20
2017-08-10T02:58:32.658Z,17.18
2017-08-10T03:00:34.413Z,17.10
2017-08-10T03:02:35.940Z,17.10
2017-08-10T03:04:37.413Z,17.11
2017-08-10T03:06:38.976Z,17.11
2017-08-10T03:09:22.396Z,17.20
2017-08-10T03:11:23.930Z,17.20
2017-08-10T03:13:25.557Z,17.23
2017-08-10T03:15:27.364Z,17.22
2017-08-10T03:18:08.995Z,17.18
2017-08-10T03:20:11.008Z,17.14
2017-08-10T03:22:12.408Z,17.00
2017-08-10T03:24:14.004Z,16.99
2017-08-10T03:26:15.484Z,17.04
2017-08-10T03:28:16.912Z,17.07
2017-08-10T03:30:18.339Z,16.99
2017-08-10T03:32:20.022Z,17.04
2017-08-10T03:34:21.579Z,17.07
2017-08-10T03:36:23.079Z,16.96
2017-08-10T03:38:24.544Z,17.08
2017-08-10T03:40:26.123Z,17.07
2017-08-10T03:43:08.548Z,16.99
2017-08-10T03:45:09.967Z,16.98
2017-08-10T03:47:11.440Z,17.00
2017-08-10T03:49:13.037Z,17.04
2017-08-10T03:51:15.146Z,17.10
2017-08-10T03:53:57.632Z,16.98
2017-08-10T03:55:59.024Z,16.96
2017-08-10T03:58:00.491Z,17.04
2017-08-10T04:00:01.901Z,17.03
2017-08-10T04:02:45.142Z,16.98
2017-08-10T04:04:46.733Z,16.99
2017-08-10T04:06:48.610Z,16.98
2017-08-10T04:08:50.340Z,17.03
2017-08-10T04:10:52.310Z,17.15
2017-08-10T04:12:53.829Z,17.07
2017-08-10T04:14:55.282Z,17.13
2017-08-10T04:16:56.705Z,17.08
2017-08-10T04:18:58.131Z,17.11
2017-08-10T04:20:59.570Z,17.11
2017-08-10T04:23:01.230Z,16.96
2017-08-10T04:25:02.986Z,17.06
2017-08-10T04:27:46.725Z,17.00
2017-08-10T04:29:48.097Z,17.04
2017-08-10T04:31:49.692Z,17.06
2017-08-10T04:33:51.180Z,17.10
2017-08-10T04:35:53.376Z,17.11
2017-08-10T04:37:54.825Z,17.07
2017-08-10T04:39:56.257Z,17.07
2017-08-10T04:41:57.680Z,17.11
2017-08-10T04:43:59.123Z,17.04
2017-08-10T04:46:00.550Z,17.11
2017-08-10T04:48:02.292Z,17.04
2017-08-10T04:50:44.693Z,17.17
2017-08-10T04:52:46.124Z,17.10
2017-08-10T04:54:47.561Z,17.08
2017-08-10T04:56:50.139Z,17.13
2017-08-10T04:58:51.636Z,17.15
2017-08-10T05:00:53.070Z,17.14
2017-08-10T05:02:54.491Z,17.18
2017-08-10T05:04:56.485Z,17.23
2017-08-10T05:06:58.284Z,17.15
2017-08-10T05:08:59.772Z,17.18
2017-08-10T05:11:01.309Z,17.23
2017-08-10T05:13:03.281Z,17.26
2017-08-10T05:15:04.782Z,17.28
2017-08-10T05:17:06.248Z,17.28
2017-08-10T05:19:08.156Z,17.30
2017-08-10T05:21:10.029Z,17.40
2017-08-10T05:23:11.666Z,17.33
2017-08-10T05:25:13.644Z,17.32
2017-08-10T05:27:56.128Z,17.40
2017-08-10T05:29:57.545Z,17.40
2017-08-10T05:31:59.035Z,17.51
2017-08-10T05:34:00.424Z,17.55
2017-08-10T05:36:01.845Z,17.59
2017-08-10T05:38:03.353Z,17.62
2017-08-10T05:40:05.034Z,17.64
2017-08-10T05:42:06.445Z,17.63
2017-08-10T05:44:07.878Z,17.69
2017-08-10T05:46:09.311Z,17.78
2017-08-10T05:48:10.760Z,17.78
2017-08-10T05:50:12.571Z,17.79
2017-08-10T05:52:13.977Z,17.88
2017-08-10T05:54:15.422Z,17.94
2017-08-10T05:56:57.841Z,17.97
2017-08-10T05:58:59.700Z,17.94
2017-08-10T06:01:01.086Z,18.00
2017-08-10T06:03:02.536Z,18.10
2017-08-10T06:05:04.328Z,18.19
2017-08-10T06:07:05.858Z,18.31
2017-08-10T06:09:07.277Z,18.34
2017-08-10T06:11:08.716Z,18.50
2017-08-10T06:13:10.145Z,18.58
2017-08-10T06:15:11.577Z,18.64
2017-08-10T06:17:13.376Z,18.64
2017-08-10T06:19:15.221Z,18.68
2017-08-10T06:21:17.104Z,18.80
2017-08-10T06:23:18.559Z,18.86
2017-08-10T06:25:20.085Z,18.86
2017-08-10T06:27:21.629Z,19.01
2017-08-10T06:29:23.119Z,19.25
2017-08-10T06:31:24.971Z,19.31
2017-08-10T06:33:26.846Z,19.48
2017-08-10T06:35:28.346Z,19.57
2017-08-10T06:38:09.752Z,20.35
2017-08-10T06:40:11.195Z,21.24
2017-08-10T06:42:12.617Z,22.20
2017-08-10T06:44:14.055Z,23.47
2017-08-10T06:46:15.489Z,24.64
2017-08-10T06:48:16.924Z,25.65
2017-08-10T06:50:18.360Z,26.15
2017-08-10T06:52:19.798Z,25.67
2017-08-10T06:54:21.238Z,24.92
2017-08-10T06:56:22.682Z,24.27
2017-08-10T06:58:24.109Z,23.98
2017-08-10T07:00:25.550Z,24.01
2017-08-10T07:02:26.991Z,23.90
2017-08-10T07:04:28.430Z,24.07
2017-08-10T07:06:29.864Z,24.00
2017-08-10T07:08:31.302Z,23.76
2017-08-10T07:10:32.738Z,23.60
2017-08-10T07:12:34.173Z,23.61
2017-08-10T07:14:35.609Z,23.57
2017-08-10T07:16:37.042Z,23.12
2017-08-10T07:18:38.476Z,22.75
2017-08-10T07:20:39.910Z,22.34
2017-08-10T07:22:41.348Z,22.12
2017-08-10T07:24:42.779Z,21.83
2017-08-10T07:26:44.220Z,21.78
2017-08-10T07:28:45.656Z,21.74
2017-08-10T07:30:47.132Z,21.79
2017-08-10T07:32:48.634Z,21.81
2017-08-10T07:34:50.506Z,22.14
2017-08-10T07:36:51.960Z,22.25
2017-08-10T07:38:53.411Z,22.44
2017-08-10T07:40:54.990Z,22.31
2017-08-10T07:42:56.521Z,22.62
2017-08-10T07:44:58.174Z,22.46
2017-08-10T07:47:40.823Z,22.50
2017-08-10T07:49:43.476Z,22.53
2017-08-10T07:51:47.139Z,22.43
2017-08-10T07:53:48.965Z,22.16
2017-08-10T07:55:50.902Z,22.07
2017-08-10T07:57:52.420Z,21.99
2017-08-10T07:59:54.366Z,21.85
2017-08-10T08:01:56.288Z,21.82
2017-08-10T08:03:58.093Z,21.87
2017-08-10T08:05:59.786Z,21.69
2017-08-10T08:08:01.753Z,21.74
2017-08-10T08:10:03.644Z,21.75
2017-08-10T08:12:05.503Z,21.71
2017-08-10T08:14:08.026Z,21.78
2017-08-10T08:16:09.571Z,21.87
2017-08-10T08:18:11.405Z,22.01
2017-08-10T08:20:13.313Z,21.79
2017-08-10T08:22:15.006Z,21.94
2017-08-10T08:24:57.395Z,21.90
2017-08-10T08:26:58.898Z,21.82
2017-08-10T08:29:00.338Z,21.81
2017-08-10T08:31:01.775Z,21.91
2017-08-10T08:33:03.248Z,21.90
2017-08-10T08:35:04.674Z,21.90
2017-08-10T08:37:06.137Z,22.02
2017-08-10T08:39:07.631Z,22.22
2017-08-10T08:41:09.062Z,22.44
2017-08-10T08:43:10.582Z,22.53
2017-08-10T08:45:12.050Z,22.59
2017-08-10T08:47:13.526Z,22.39
2017-08-10T08:49:15.078Z,22.54
2017-08-10T08:51:16.534Z,22.53
2017-08-10T08:53:18.161Z,22.71
2017-08-10T08:55:19.777Z,22.80
2017-08-10T08:57:21.203Z,22.84
2017-08-10T08:59:22.773Z,23.02
2017-08-10T09:01:24.562Z,23.04
2017-08-10T09:03:26.127Z,23.22
2017-08-10T09:05:27.610Z,23.60
2017-08-10T09:07:29.498Z,23.70
2017-08-10T09:09:31.136Z,23.70
2017-08-10T09:11:32.758Z,23.68
2017-08-10T09:13:34.585Z,23.82
2017-08-10T09:15:36.335Z,23.85
2017-08-10T09:17:38.054Z,24.02
2017-08-10T09:19:39.870Z,24.17
2017-08-10T09:21:41.688Z,24.14
2017-08-10T09:23:43.298Z,24.27
2017-08-10T09:25:44.974Z,24.44
2017-08-10T09:27:46.628Z,24.49
2017-08-10T09:29:48.166Z,24.50
2017-08-10T09:31:49.694Z,24.68
2017-08-10T09:33:51.447Z,24.53
2017-08-10T09:35:53.242Z,24.69
2017-08-10T09:37:54.988Z,24.77
2017-08-10T09:39:56.550Z,24.90
2017-08-10T09:41:58.092Z,24.94
2017-08-10T09:43:59.675Z,24.73
2017-08-10T09:46:01.182Z,24.67
2017-08-10T09:48:02.718Z,24.67
2017-08-10T09:50:04.238Z,24.54
2017-08-10T09:52:05.812Z,24.31
2017-08-10T09:54:07.283Z,24.29
2017-08-10T09:56:08.815Z,24.35
2017-08-10T09:58:10.574Z,24.45
2017-08-10T10:00:12.125Z,24.71
2017-08-10T10:02:13.968Z,24.90
2017-08-10T10:04:15.750Z,25.02
2017-08-10T10:06:17.535Z,25.16
2017-08-10T10:08:19.043Z,25.39
2017-08-10T10:10:20.575Z,25.49
2017-08-10T10:12:22.495Z,25.30
2017-08-10T10:14:24.356Z,25.27
2017-08-10T10:16:25.860Z,25.28
2017-08-10T10:18:27.368Z,25.47
2017-08-10T10:20:29.321Z,25.44
2017-08-10T10:22:31.112Z,25.46
2017-08-10T10:24:32.680Z,25.65
2017-08-10T10:26:34.229Z,25.64
2017-08-10T10:28:35.755Z,25.57
2017-08-10T10:30:37.236Z,25.42
2017-08-10T10:32:38.823Z,25.31
2017-08-10T10:34:40.436Z,25.15
2017-08-10T10:36:42.052Z,25.10
2017-08-10T10:38:43.596Z,25.06
2017-08-10T10:40:45.151Z,25.01
2017-08-10T10:42:46.732Z,25.17
2017-08-10T10:44:48.277Z,25.32
2017-08-10T10:47:30.863Z,25.32
2017-08-10T10:49:32.243Z,25.31
2017-08-10T10:51:33.681Z,25.32
2017-08-10T10:53:35.120Z,25.32
2017-08-10T10:55:36.654Z,25.25
2017-08-10T10:57:38.149Z,25.22
2017-08-10T10:59:39.711Z,25.25
2017-08-10T11:01:41.475Z,25.01
2017-08-10T11:03:42.932Z,24.92
2017-08-10T11:05:44.539Z,24.94
2017-08-10T11:07:46.281Z,24.91
2017-08-10T11:09:47.878Z,25.13
2017-08-10T11:11:49.553Z,25.00
2017-08-10T11:13:51.160Z,25.13
2017-08-10T11:15:52.664Z,25.00
2017-08-10T11:17:54.585Z,24.82
2017-08-10T11:19:56.391Z,24.85
2017-08-10T11:21:58.159Z,25.06
2017-08-10T11:23:59.671Z,25.27
2017-08-10T11:26:01.195Z,25.52
2017-08-10T11:28:02.731Z,25.54
2017-08-10T11:30:04.308Z,25.56
2017-08-10T11:32:05.950Z,25.56
2017-08-10T11:34:07.478Z,25.46
2017-08-10T11:36:08.963Z,25.49
2017-08-10T11:38:10.496Z,25.38
2017-08-10T11:40:11.997Z,25.35
2017-08-10T11:42:13.550Z,25.24
2017-08-10T11:44:15.223Z,25.15
2017-08-10T11:46:16.797Z,25.30
2017-08-10T11:48:18.386Z,25.22
2017-08-10T11:50:20.207Z,25.27
2017-08-10T11:52:22.004Z,25.25
2017-08-10T11:54:23.473Z,25.28
2017-08-10T11:56:25.280Z,25.24
2017-08-10T11:58:26.749Z,25.20
2017-08-10T12:00:28.285Z,25.19
2017-08-10T12:02:30.208Z,25.20
2017-08-10T12:04:31.734Z,25.17
2017-08-10T12:06:33.625Z,25.17
2017-08-10T12:08:35.152Z,25.12
2017-08-10T12:10:36.737Z,25.16
2017-08-10T12:12:38.253Z,25.16
2017-08-10T12:14:39.792Z,25.20
2017-08-10T12:16:41.384Z,25.05
2017-08-10T12:18:42.922Z,25.01
2017-08-10T12:20:44.377Z,24.92
2017-08-10T12:22:45.926Z,24.88
2017-08-10T12:24:47.395Z,24.90
2017-08-10T12:26:48.833Z,24.87
2017-08-10T12:28:50.281Z,24.83
2017-08-10T12:30:51.712Z,24.87
2017-08-10T12:32:53.189Z,24.85
2017-08-10T12:34:54.635Z,24.87
2017-08-10T12:36:56.085Z,24.79
2017-08-10T12:38:57.512Z,24.76
2017-08-10T12:40:59.028Z,24.79
2017-08-10T12:43:00.458Z,24.71
2017-08-10T12:45:02.322Z,24.61
2017-08-10T12:47:03.804Z,24.60
2017-08-10T12:49:05.311Z,24.59
2017-08-10T12:51:06.791Z,24.73
2017-08-10T12:53:08.294Z,24.61
2017-08-10T12:55:09.770Z,24.53
2017-08-10T12:57:11.262Z,24.52
2017-08-10T12:59:12.696Z,24.37
2017-08-10T13:01:14.137Z,24.31
2017-08-10T13:03:15.575Z,24.37
2017-08-10T13:05:17.008Z,24.39
2017-08-10T13:07:18.449Z,24.37
2017-08-10T13:09:19.890Z,24.53
2017-08-10T13:11:21.328Z,24.32
2017-08-10T13:13:22.753Z,24.37
2017-08-10T13:15:24.197Z,24.45
2017-08-10T13:17:25.625Z,24.49
2017-08-10T13:19:27.079Z,24.49
2017-08-10T13:21:28.644Z,24.63
2017-08-10T13:23:30.092Z,24.82
2017-08-10T13:25:31.600Z,24.92
2017-08-10T13:27:33.027Z,24.94
2017-08-10T13:29:34.461Z,24.80
2017-08-10T13:31:35.903Z,24.77
2017-08-10T13:33:37.337Z,24.63
2017-08-10T13:35:38.774Z,24.71
2017-08-10T13:37:40.208Z,24.67
2017-08-10T13:39:41.649Z,24.49
2017-08-10T13:41:43.090Z,24.31
2017-08-10T13:43:44.530Z,24.29
2017-08-10T13:45:45.968Z,24.35
2017-08-10T13:47:47.403Z,24.26
2017-08-10T13:49:48.840Z,24.26
2017-08-10T13:51:50.279Z,24.19
2017-08-10T13:53:51.711Z,24.08
2017-08-10T13:55:53.153Z,24.10
2017-08-10T13:57:54.596Z,24.10
2017-08-10T13:59:56.023Z,23.97
2017-08-10T14:01:57.460Z,24.00
2017-08-10T14:03:58.894Z,23.89
2017-08-10T14:06:00.328Z,23.86
2017-08-10T14:08:01.769Z,23.94
2017-08-10T14:10:03.210Z,23.98
2017-08-10T14:12:04.643Z,23.87
2017-08-10T14:14:06.076Z,23.83
2017-08-10T14:16:07.514Z,23.83
2017-08-10T14:18:08.957Z,23.75
2017-08-10T14:20:10.383Z,23.75
2017-08-10T14:22:11.818Z,23.72
2017-08-10T14:24:13.259Z,23.75
2017-08-10T14:26:14.689Z,23.76
2017-08-10T14:28:16.129Z,23.77
2017-08-10T14:30:17.565Z,23.64
2017-08-10T14:32:18.999Z,23.64
2017-08-10T14:34:20.436Z,23.64
2017-08-10T14:36:21.870Z,23.70
2017-08-10T14:38:23.312Z,23.64
2017-08-10T14:40:24.742Z,23.67
2017-08-10T14:42:26.190Z,23.64
2017-08-10T14:44:27.618Z,23.68
2017-08-10T14:46:29.068Z,23.64
2017-08-10T14:48:30.503Z,23.64
2017-08-10T14:50:31.938Z,23.68
2017-08-10T14:52:33.373Z,23.65
2017-08-10T14:54:34.807Z,23.64
2017-08-10T14:56:36.242Z,23.53
2017-08-10T14:58:37.696Z,23.53
2017-08-10T15:00:39.097Z,23.64
2017-08-10T15:02:40.695Z,23.60
2017-08-10T15:04:42.166Z,23.61
2017-08-10T15:06:43.658Z,23.64
2017-08-10T15:08:45.111Z,23.61
2017-08-10T15:10:46.539Z,23.58
2017-08-10T15:12:47.980Z,23.60
2017-08-10T15:14:49.433Z,23.57
2017-08-10T15:16:50.870Z,23.60
2017-08-10T15:18:52.305Z,23.60
2017-08-10T15:20:53.746Z,23.55
2017-08-10T15:22:55.191Z,23.57
2017-08-10T15:24:56.637Z,23.53
2017-08-10T15:26:58.086Z,23.42
2017-08-10T15:28:59.590Z,23.45
2017-08-10T15:31:01.063Z,23.49
2017-08-10T15:33:02.517Z,23.46
2017-08-10T15:35:03.946Z,23.49
2017-08-10T15:37:05.391Z,23.39
2017-08-10T15:39:06.861Z,23.42
2017-08-10T15:41:08.298Z,23.34
2017-08-10T15:43:09.734Z,23.46
2017-08-10T15:45:11.171Z,23.40
2017-08-10T15:47:12.747Z,23.34
2017-08-10T15:49:14.280Z,23.40
2017-08-10T15:51:15.728Z,23.34
2017-08-10T15:53:17.221Z,23.38
2017-08-10T15:55:18.736Z,23.31
2017-08-10T15:57:20.277Z,23.34
2017-08-10T15:59:21.744Z,23.31
2017-08-10T16:01:23.243Z,23.29
2017-08-10T16:03:24.746Z,23.32
2017-08-10T16:05:26.301Z,23.19
2017-08-10T16:07:27.768Z,23.19
2017-08-10T16:09:29.326Z,23.19
2017-08-10T16:11:30.805Z,23.14
2017-08-10T16:13:32.339Z,23.12
2017-08-10T16:15:33.980Z,23.12
2017-08-10T16:17:35.540Z,23.07
2017-08-10T16:20:17.948Z,23.12
2017-08-10T16:22:19.462Z,23.12
2017-08-10T16:24:21.144Z,22.99
2017-08-10T16:26:22.637Z,23.02
2017-08-10T16:28:24.199Z,23.08
2017-08-10T16:30:25.644Z,22.99
2017-08-10T16:32:27.099Z,22.80
2017-08-10T16:34:28.528Z,22.83
2017-08-10T16:36:29.970Z,22.78
2017-08-10T16:38:31.400Z,22.74
2017-08-10T16:40:32.857Z,22.87
2017-08-10T16:42:34.295Z,22.72
2017-08-10T16:44:35.733Z,22.75
2017-08-10T16:46:37.180Z,22.75
2017-08-10T16:48:38.740Z,22.74
2017-08-10T16:50:40.172Z,22.72
2017-08-10T16:52:41.609Z,22.78
2017-08-10T16:54:43.039Z,22.71
2017-08-10T16:56:44.470Z,22.71
2017-08-10T16:58:45.911Z,22.71
2017-08-10T17:00:47.345Z,22.62
2017-08-10T17:02:48.776Z,22.68
2017-08-10T17:04:50.212Z,22.72
2017-08-10T17:06:51.645Z,22.71
2017-08-10T17:08:53.082Z,22.72
2017-08-10T17:10:54.518Z,22.72
2017-08-10T17:12:55.996Z,22.59
2017-08-10T17:14:57.426Z,22.53
2017-08-10T17:16:58.859Z,22.57
2017-08-10T17:19:00.316Z,22.37
2017-08-10T17:21:01.953Z,22.50
2017-08-10T17:23:03.469Z,22.44
2017-08-10T17:25:04.926Z,22.44
2017-08-10T17:27:07.136Z,22.39
2017-08-10T17:29:08.649Z,22.39
2017-08-10T17:31:10.137Z,22.39
2017-08-10T17:33:11.586Z,22.35
2017-08-10T17:35:13.204Z,22.37
2017-08-10T17:37:14.692Z,22.32
2017-08-10T17:39:16.731Z,22.29
2017-08-10T17:41:18.688Z,22.37
2017-08-10T17:43:20.201Z,22.32
2017-08-10T17:45:21.666Z,22.25
2017-08-10T17:47:23.118Z,22.44
2017-08-10T17:49:24.781Z,22.31
2017-08-10T17:51:27.360Z,22.41
2017-08-10T17:53:30.439Z,22.35
2017-08-10T17:55:32.054Z,22.31
2017-08-10T17:57:33.613Z,22.38
2017-08-10T17:59:35.121Z,22.19
2017-08-10T18:01:36.730Z,22.23
2017-08-10T18:03:39.115Z,22.23
2017-08-10T18:05:40.649Z,22.31
2017-08-10T18:07:42.099Z,22.34
2017-08-10T18:09:43.932Z,22.34
2017-08-10T18:11:45.860Z,22.19
2017-08-10T18:13:48.219Z,22.27
2017-08-10T18:15:49.682Z,22.19
2017-08-10T18:17:51.128Z,22.23
2017-08-10T18:19:52.562Z,22.25
2017-08-10T18:21:54.044Z,22.19
2017-08-10T18:23:55.470Z,22.22
2017-08-10T18:25:56.904Z,22.22
2017-08-10T18:27:58.695Z,22.20
2017-08-10T18:30:00.128Z,22.17
2017-08-10T18:32:01.559Z,22.19
2017-08-10T18:34:02.990Z,22.17
2017-08-10T18:36:04.430Z,22.22
2017-08-10T18:38:05.856Z,22.12
2017-08-10T18:40:07.554Z,22.14
2017-08-10T18:42:08.991Z,22.12
2017-08-10T18:44:10.425Z,22.02
2017-08-10T18:46:11.857Z,21.98
2017-08-10T18:48:13.301Z,21.87
2017-08-10T18:50:14.732Z,21.94
2017-08-10T18:52:16.185Z,21.85
2017-08-10T18:54:17.916Z,21.90
2017-08-10T18:56:19.673Z,21.85
2017-08-10T18:58:21.450Z,21.85
2017-08-10T19:00:23.204Z,21.82
2017-08-10T19:02:24.605Z,21.94
2017-08-10T19:04:26.046Z,21.90
2017-08-10T19:06:27.469Z,21.87
2017-08-10T19:08:28.901Z,21.74
2017-08-10T19:10:30.332Z,21.74
2017-08-10T19:12:31.962Z,21.74
2017-08-10T19:14:33.395Z,21.66
2017-08-10T19:16:35.005Z,21.72
2017-08-10T19:18:36.599Z,21.63
2017-08-10T19:20:38.037Z,21.60
2017-08-10T19:22:39.543Z,21.59
2017-08-10T19:24:41.324Z,21.61
2017-08-10T19:26:43.215Z,21.50
2017-08-10T19:29:25.836Z,21.51
2017-08-10T19:31:27.356Z,21.53
2017-08-10T19:33:28.805Z,21.56
2017-08-10T19:35:30.226Z,21.63
2017-08-10T19:37:31.794Z,21.60
2017-08-10T19:39:33.387Z,21.56
2017-08-10T19:41:35.199Z,21.56
2017-08-10T19:43:36.984Z,21.46
2017-08-10T19:46:18.633Z,21.53
2017-08-10T19:48:20.054Z,21.59
2017-08-10T19:50:21.481Z,21.57
2017-08-10T19:52:22.919Z,21.50
2017-08-10T19:54:25.809Z,21.54
2017-08-10T19:56:27.829Z,21.56
2017-08-10T19:58:29.207Z,21.45
2017-08-10T20:00:30.650Z,21.42
2017-08-10T20:02:32.071Z,21.50
2017-08-10T20:04:33.780Z,21.44
2017-08-10T20:06:35.212Z,21.46
2017-08-10T20:08:36.638Z,21.38
2017-08-10T20:10:38.066Z,21.42
2017-08-10T20:12:39.514Z,21.48
2017-08-10T20:14:40.953Z,21.51
2017-08-10T20:16:42.513Z,21.38
2017-08-10T20:18:44.016Z,21.34
2017-08-10T20:20:45.445Z,21.42
2017-08-10T20:22:46.880Z,21.32
2017-08-10T20:24:48.313Z,21.35
2017-08-10T20:26:49.850Z,21.27
2017-08-10T20:28:51.286Z,21.26
2017-08-10T20:30:52.728Z,21.21
2017-08-10T20:32:54.204Z,21.13
2017-08-10T20:34:55.688Z,21.11
2017-08-10T20:36:57.273Z,21.04
2017-08-10T20:38:58.837Z,21.02
2017-08-10T20:41:00.279Z,21.06
2017-08-10T20:43:43.513Z,20.98
2017-08-10T20:45:44.929Z,20.86
2017-08-10T20:47:46.394Z,20.90
2017-08-10T20:49:47.908Z,20.79
2017-08-10T20:51:49.341Z,20.74
2017-08-10T20:53:51.408Z,20.74
2017-08-10T20:55:52.832Z,20.74
2017-08-10T20:57:54.844Z,20.71
2017-08-10T20:59:56.510Z,20.74
2017-08-10T21:01:58.470Z,20.71
2017-08-10T21:04:00.027Z,20.72
2017-08-10T21:06:01.555Z,20.71
2017-08-10T21:08:03.092Z,20.69
2017-08-10T21:10:04.608Z,20.65
2017-08-10T21:12:06.044Z,20.66
2017-08-10T21:14:49.024Z,20.69
2017-08-10T21:16:50.927Z,20.59
2017-08-10T21:18:53.454Z,20.64
2017-08-10T21:20:55.478Z,20.64
2017-08-10T21:22:56.922Z,20.64
2017-08-10T21:24:58.918Z,20.68
2017-08-10T21:27:41.589Z,20.58
2017-08-10T21:29:43.632Z,20.61
2017-08-10T21:31:45.430Z,20.65
2017-08-10T21:33:46.821Z,20.58
2017-08-10T21:35:48.603Z,20.54
2017-08-10T21:37:50.061Z,20.49
2017-08-10T21:39:51.479Z,20.51
2017-08-10T21:41:52.896Z,20.59
2017-08-10T21:44:35.313Z,20.51
2017-08-10T21:46:37.304Z,20.61
2017-08-10T21:48:39.190Z,20.47
2017-08-10T21:50:40.623Z,20.50
2017-08-10T21:52:42.253Z,20.54
2017-08-10T21:54:43.762Z,20.53
2017-08-10T21:56:45.323Z,20.51
2017-08-10T21:58:46.817Z,20.46
2017-08-10T22:00:48.915Z,20.34
2017-08-10T22:02:50.483Z,20.47
2017-08-10T22:04:52.517Z,20.43
2017-08-10T22:06:54.419Z,20.42
2017-08-10T22:09:37.226Z,20.49
2017-08-10T22:11:39.186Z,20.38
2017-08-10T22:13:40.580Z,20.39
2017-08-10T22:15:42.053Z,20.35
2017-08-10T22:17:43.554Z,20.33
2017-08-10T22:19:45.498Z,20.30
2017-08-10T22:21:47.441Z,20.24
2017-08-10T22:24:30.376Z,20.33
2017-08-10T22:26:32.023Z,20.23
2017-08-10T22:28:33.431Z,20.28
2017-08-10T22:30:35.031Z,20.28
2017-08-10T22:32:36.457Z,20.23
2017-08-10T22:34:37.895Z,20.25
2017-08-10T22:36:39.346Z,20.28
2017-08-10T22:38:40.829Z,20.24
2017-08-10T22:40:42.268Z,20.21
2017-08-10T22:42:43.761Z,20.27
2017-08-10T22:44:45.202Z,20.27
2017-08-10T22:46:46.671Z,20.18
2017-08-10T22:48:48.136Z,20.24
2017-08-10T22:50:49.735Z,20.10
2017-08-10T22:52:51.252Z,20.03
2017-08-10T22:54:52.677Z,20.15
2017-08-10T22:57:35.453Z,20.18
2017-08-10T22:59:36.866Z,20.15
2017-08-10T23:01:38.288Z,20.05
2017-08-10T23:03:40.431Z,20.09
2017-08-10T23:05:42.275Z,20.00
2017-08-10T23:07:44.027Z,19.88
2017-08-10T23:09:45.642Z,19.97
2017-08-10T23:12:28.298Z,20.02
2017-08-10T23:14:29.702Z,20.03
2017-08-10T23:16:31.451Z,19.98
2017-08-10T23:18:33.592Z,19.93
2017-08-10T23:20:35.027Z,19.79
2017-08-10T23:22:36.453Z,19.84
2017-08-10T23:24:37.923Z,19.87
2017-08-10T23:26:39.469Z,19.80
2017-08-10T23:28:40.898Z,19.78
2017-08-10T23:30:42.672Z,19.79
2017-08-10T23:32:44.519Z,19.78
2017-08-10T23:34:45.961Z,19.79
2017-08-10T23:36:47.486Z,19.78
2017-08-10T23:38:48.954Z,19.78
2017-08-10T23:40:50.746Z,19.70
2017-08-10T23:43:33.423Z,19.69
2017-08-10T23:45:35.838Z,19.60
2017-08-10T23:47:38.783Z,19.68
2017-08-10T23:49:40.234Z,19.61
2017-08-10T23:51:41.763Z,19.60
2017-08-10T23:53:43.318Z,19.48
2017-08-10T23:55:44.855Z,19.46
2017-08-10T23:57:46.432Z,19.38
